Time;durP1;ratioP1;P1;durP2;ratioP2;P2;SDS_P1;SDS_P2;PMS_P1;PMS_P2;Temp;Humidity;BMP_temperature;BMP_pressure;BME280_temperature;BME280_humidity;BME280_pressure;Samples;Min_cycle;Max_cycle;Signal;HPM_P1;HPM_P2
2023/10/24 00:02:12;;;;;;;1.60;1.50;;;;;;;;;;4971646;28;20255;-85
2023/10/24 00:04:43;;;;;;;2.60;2.40;;;;;;;;;;4972344;28;20213;-85
2023/10/24 00:07:13;;;;;;;2.03;1.00;;;;;;;;;;4972579;28;20309;-85
2023/10/24 00:09:40;;;;;;;2.40;1.47;;;;;;;;;;4972036;28;20640;-86
2023/10/24 00:12:17;;;;;;;2.53;1.30;;;;;;;;;;4972439;28;20209;-85
2023/10/24 00:14:46;;;;;;;2.80;2.13;;;;;;;;;;4972309;28;20325;-86
2023/10/24 00:17:16;;;;;;;1.87;1.40;;;;;;;;;;4975921;28;20201;-85
2023/10/24 00:19:46;;;;;;;2.17;1.10;;;;;;;;;;5006672;28;20197;-84
2023/10/24 00:22:15;;;;;;;1.00;1.00;;;;;;;;;;5003835;28;20314;-85
2023/10/24 00:24:45;;;;;;;1.80;1.10;;;;;;;;;;5015577;28;20199;-85
2023/10/24 00:27:15;;;;;;;6.73;1.60;;;;;;;;;;5000948;28;20589;-84
2023/10/24 00:29:45;;;;;;;5.57;1.57;;;;;;;;;;4992575;28;20200;-85
2023/10/24 00:32:15;;;;;;;2.93;0.90;;;;;;;;;;4992120;28;20212;-85
2023/10/24 00:34:44;;;;;;;3.80;1.20;;;;;;;;;;4992629;28;20824;-86
2023/10/24 00:37:14;;;;;;;1.17;1.07;;;;;;;;;;4990741;28;20629;-85
2023/10/24 00:39:44;;;;;;;5.33;1.33;;;;;;;;;;4990957;28;20302;-86
2023/10/24 00:42:16;;;;;;;2.73;1.53;;;;;;;;;;4991785;28;20221;-86
2023/10/24 00:44:44;;;;;;;1.50;1.40;;;;;;;;;;4991488;28;20264;-85
2023/10/24 00:47:11;;;;;;;5.70;1.87;;;;;;;;;;4987775;28;20233;-85
2023/10/24 00:49:42;;;;;;;5.03;1.53;;;;;;;;;;4971514;28;20210;-85
2023/10/24 00:52:11;;;;;;;1.83;1.00;;;;;;;;;;4972547;28;20282;-84
2023/10/24 00:54:41;;;;;;;1.20;1.20;;;;;;;;;;4972269;28;20719;-85
2023/10/24 00:57:12;;;;;;;5.70;1.53;;;;;;;;;;4971888;28;20755;-87
2023/10/24 00:59:46;;;;;;;5.80;1.23;;;;;;;;;;4972358;28;20227;-87
2023/10/24 01:02:16;;;;;;;2.47;1.57;;;;;;;;;;4971352;28;20220;-85
2023/10/24 01:04:46;;;;;;;1.43;1.33;;;;;;;;;;4971585;28;20316;-85
2023/10/24 01:07:18;;;;;;;10.83;1.63;;;;;;;;;;4971737;28;20242;-85
2023/10/24 01:09:51;;;;;;;4.83;1.00;;;;;;;;;;4972165;28;20265;-86
2023/10/24 01:12:20;;;;;;;1.10;1.10;;;;;;;;;;4972908;28;20202;-85
2023/10/24 01:14:48;;;;;;;2.50;1.70;;;;;;;;;;4972409;28;20252;-86
2023/10/24 01:17:18;;;;;;;1.50;1.20;;;;;;;;;;4973919;28;20202;-86
2023/10/24 01:19:47;;;;;;;4.17;1.20;;;;;;;;;;4976323;28;20206;-84
2023/10/24 01:22:21;;;;;;;6.83;1.27;;;;;;;;;;4975345;28;20198;-86
2023/10/24 01:24:52;;;;;;;2.87;1.50;;;;;;;;;;4975336;28;20197;-86
2023/10/24 01:27:22;;;;;;;1.50;1.40;;;;;;;;;;4975783;28;20202;-85
2023/10/24 01:29:50;;;;;;;3.20;1.30;;;;;;;;;;4973529;28;20209;-86
2023/10/24 01:32:21;;;;;;;4.20;1.27;;;;;;;;;;4975195;28;20206;-86
2023/10/24 01:34:52;;;;;;;1.47;1.27;;;;;;;;;;4980480;28;20233;-85
2023/10/24 01:37:22;;;;;;;3.27;1.50;;;;;;;;;;4980401;28;20210;-86
2023/10/24 01:39:52;;;;;;;1.63;1.53;;;;;;;;;;4975831;28;20211;-85
2023/10/24 01:42:23;;;;;;;3.47;1.60;;;;;;;;;;4975900;28;20270;-86
2023/10/24 01:44:51;;;;;;;3.10;1.73;;;;;;;;;;4974814;28;20732;-86
2023/10/24 01:47:21;;;;;;;5.80;1.17;;;;;;;;;;4975713;28;20212;-86
2023/10/24 01:49:50;;;;;;;5.47;1.20;;;;;;;;;;4980138;28;20223;-86
2023/10/24 01:52:18;;;;;;;5.90;1.60;;;;;;;;;;4976065;28;20207;-85
2023/10/24 01:54:47;;;;;;;8.10;2.30;;;;;;;;;;4974919;28;20230;-85
2023/10/24 01:57:15;;;;;;;6.43;1.97;;;;;;;;;;4975164;28;20694;-86
2023/10/24 01:59:44;;;;;;;4.50;1.97;;;;;;;;;;4974379;28;20595;-86
2023/10/24 02:02:12;;;;;;;4.97;1.60;;;;;;;;;;4974870;28;20622;-85
2023/10/24 02:04:41;;;;;;;1.67;1.33;;;;;;;;;;4975151;28;20232;-86
2023/10/24 02:07:13;;;;;;;1.43;1.43;;;;;;;;;;4975382;28;20246;-86
2023/10/24 02:09:44;;;;;;;1.30;1.20;;;;;;;;;;4982416;28;20215;-86
2023/10/24 02:12:18;;;;;;;2.80;1.37;;;;;;;;;;4984675;28;20227;-86
2023/10/24 02:14:50;;;;;;;5.70;1.87;;;;;;;;;;4974697;28;20233;-85
2023/10/24 02:17:27;;;;;;;10.93;1.20;;;;;;;;;;4975673;28;20672;-86
2023/10/24 02:19:57;;;;;;;3.67;1.50;;;;;;;;;;4974709;28;20236;-85
2023/10/24 02:22:29;;;;;;;4.87;1.77;;;;;;;;;;4974307;28;20208;-86
2023/10/24 02:24:58;;;;;;;4.73;1.83;;;;;;;;;;4974942;28;20289;-86
2023/10/24 02:27:34;;;;;;;19.43;7.87;;;;;;;;;;4973589;28;20233;-87
2023/10/24 02:30:03;;;;;;;4.80;1.90;;;;;;;;;;4972959;28;20265;-86
2023/10/24 02:32:33;;;;;;;1.53;1.43;;;;;;;;;;4975548;28;20206;-86
2023/10/24 02:35:02;;;;;;;1.20;1.10;;;;;;;;;;4974152;28;20268;-86
2023/10/24 02:37:30;;;;;;;5.83;1.70;;;;;;;;;;4974026;28;20723;-85
2023/10/24 02:40:01;;;;;;;3.73;1.77;;;;;;;;;;4975158;28;20357;-86
2023/10/24 02:42:30;;;;;;;3.40;0.70;;;;;;;;;;4976018;28;20273;-86
2023/10/24 02:45:02;;;;;;;4.03;1.20;;;;;;;;;;4975038;28;20229;-87
2023/10/24 02:47:31;;;;;;;2.47;1.43;;;;;;;;;;4974583;28;20206;-85
2023/10/24 02:50:03;;;;;;;8.27;1.80;;;;;;;;;;4975354;28;20209;-86
2023/10/24 02:52:33;;;;;;;1.30;1.20;;;;;;;;;;4975432;28;20237;-85
2023/10/24 02:55:05;;;;;;;6.60;1.70;;;;;;;;;;4975366;28;20269;-87
2023/10/24 02:57:35;;;;;;;1.17;1.07;;;;;;;;;;4975488;28;20591;-86
2023/10/24 03:00:08;;;;;;;6.73;1.57;;;;;;;;;;4974380;28;20198;-86
2023/10/24 03:02:39;;;;;;;6.77;1.40;;;;;;;;;;4975260;28;20225;-86
2023/10/24 03:05:10;;;;;;;1.10;1.10;;;;;;;;;;4975672;28;20198;-85
2023/10/24 03:07:39;;;;;;;5.13;1.30;;;;;;;;;;4986487;28;20234;-86
2023/10/24 03:10:09;;;;;;;2.03;1.17;;;;;;;;;;4989295;28;20209;-86
2023/10/24 03:12:38;;;;;;;5.03;1.50;;;;;;;;;;4991576;28;20198;-86
2023/10/24 03:15:07;;;;;;;0.93;0.93;;;;;;;;;;4988325;28;20865;-86
2023/10/24 03:17:37;;;;;;;7.13;1.77;;;;;;;;;;4978288;28;20818;-85
2023/10/24 03:20:05;;;;;;;1.60;1.50;;;;;;;;;;4978816;28;20284;-84
2023/10/24 03:22:36;;;;;;;2.07;1.00;;;;;;;;;;4977891;28;20668;-84
2023/10/24 03:25:06;;;;;;;2.23;1.27;;;;;;;;;;4977629;28;20290;-85
2023/10/24 03:27:36;;;;;;;1.60;1.07;;;;;;;;;;4977487;28;20261;-85
2023/10/24 03:30:10;;;;;;;3.13;1.40;;;;;;;;;;4976719;28;20676;-84
2023/10/24 03:32:40;;;;;;;4.33;1.17;;;;;;;;;;4980130;28;20204;-85
2023/10/24 03:35:12;;;;;;;1.37;1.27;;;;;;;;;;4979694;28;20230;-84
2023/10/24 03:37:43;;;;;;;1.80;1.27;;;;;;;;;;4979817;28;20539;-83
2023/10/24 03:40:13;;;;;;;1.67;1.27;;;;;;;;;;4981226;28;20266;-85
2023/10/24 03:42:40;;;;;;;1.67;1.57;;;;;;;;;;4979615;28;20206;-86
2023/10/24 03:45:11;;;;;;;4.13;1.53;;;;;;;;;;4981359;28;20201;-86
2023/10/24 03:47:40;;;;;;;6.00;1.90;;;;;;;;;;4979810;28;20268;-84
2023/10/24 03:50:10;;;;;;;1.97;1.13;;;;;;;;;;4986735;28;20200;-84
2023/10/24 03:52:42;;;;;;;4.07;2.10;;;;;;;;;;4988518;28;20206;-85
2023/10/24 03:55:12;;;;;;;2.10;1.90;;;;;;;;;;4988012;28;20272;-85
2023/10/24 03:57:40;;;;;;;1.83;1.40;;;;;;;;;;4988670;28;20221;-84
2023/10/24 04:00:14;;;;;;;4.73;2.17;;;;;;;;;;4991492;28;20200;-85
2023/10/24 04:02:46;;;;;;;2.07;1.73;;;;;;;;;;4990213;28;20225;-85
2023/10/24 04:05:16;;;;;;;4.30;2.47;;;;;;;;;;4991405;28;20253;-84
2023/10/24 04:07:43;;;;;;;7.03;1.80;;;;;;;;;;4976204;28;20197;-86
2023/10/24 04:10:14;;;;;;;1.73;1.57;;;;;;;;;;4976158;28;20187;-85
2023/10/24 04:12:43;;;;;;;9.87;2.70;;;;;;;;;;4975896;28;20299;-86
2023/10/24 04:15:13;;;;;;;27.20;12.90;;;;;;;;;;4976945;28;20234;-86
2023/10/24 04:17:41;;;;;;;8.77;3.30;;;;;;;;;;4975017;28;20217;-85
2023/10/24 04:20:09;;;;;;;5.20;2.63;;;;;;;;;;4975681;28;20229;-86
2023/10/24 04:22:38;;;;;;;3.60;2.27;;;;;;;;;;4965269;28;20253;-86
2023/10/24 04:25:10;;;;;;;4.17;2.83;;;;;;;;;;4958040;29;20205;-86
2023/10/24 04:27:39;;;;;;;4.70;2.90;;;;;;;;;;4956893;29;20327;-85
2023/10/24 04:30:13;;;;;;;4.63;2.53;;;;;;;;;;4955887;28;20296;-85
2023/10/24 04:32:43;;;;;;;4.47;2.40;;;;;;;;;;4954856;28;20233;-86
2023/10/24 04:38:18;;;;;;;10.83;3.03;;;;;;;;;;4996706;23;20673;-84
2023/10/24 04:40:46;;;;;;;4.63;2.77;;;;;;;;;;4934339;29;20182;-85
2023/10/24 04:43:15;;;;;;;4.63;3.20;;;;;;;;;;4938229;29;20733;-85
2023/10/24 04:45:47;;;;;;;3.10;2.90;;;;;;;;;;4927660;29;20211;-84
2023/10/24 04:48:18;;;;;;;4.73;2.63;;;;;;;;;;4925265;29;20236;-86
2023/10/24 04:50:48;;;;;;;11.10;3.73;;;;;;;;;;4915815;29;20200;-84
2023/10/24 04:53:17;;;;;;;5.83;3.40;;;;;;;;;;4917586;29;20227;-85
2023/10/24 04:55:48;;;;;;;4.60;3.30;;;;;;;;;;4921135;29;20259;-86
2023/10/24 04:58:16;;;;;;;14.80;2.87;;;;;;;;;;4922234;29;20215;-87
2023/10/24 05:00:47;;;;;;;8.37;4.07;;;;;;;;;;4927504;29;20212;-86
2023/10/24 05:03:16;;;;;;;9.90;3.57;;;;;;;;;;4928467;29;20260;-85
2023/10/24 05:05:43;;;;;;;7.33;3.40;;;;;;;;;;4928068;29;20213;-86
2023/10/24 05:08:13;;;;;;;6.83;4.60;;;;;;;;;;4935326;29;20219;-85
2023/10/24 05:10:42;;;;;;;10.33;4.33;;;;;;;;;;4930723;29;20240;-85
2023/10/24 05:13:13;;;;;;;6.13;3.70;;;;;;;;;;4936233;29;20229;-85
2023/10/24 05:15:41;;;;;;;6.07;4.20;;;;;;;;;;4937826;29;20235;-85
2023/10/24 05:18:11;;;;;;;11.27;3.97;;;;;;;;;;4937198;29;20282;-86
2023/10/24 05:20:44;;;;;;;16.20;3.30;;;;;;;;;;4937553;29;20201;-85
2023/10/24 05:23:12;;;;;;;17.03;4.47;;;;;;;;;;4936835;29;20208;-86
2023/10/24 05:25:47;;;;;;;5.93;3.83;;;;;;;;;;4940978;29;20213;-85
2023/10/24 05:28:14;;;;;;;9.80;4.03;;;;;;;;;;4940419;29;20214;-85
2023/10/24 05:30:45;;;;;;;11.27;4.43;;;;;;;;;;4941691;29;20258;-85
2023/10/24 05:33:14;;;;;;;13.83;4.30;;;;;;;;;;4939067;29;20200;-85
2023/10/24 05:35:49;;;;;;;16.07;4.03;;;;;;;;;;4940427;29;20262;-85
2023/10/24 05:38:18;;;;;;;8.45;4.53;;;;;;;;;;4939054;29;20664;-85
2023/10/24 05:40:50;;;;;;;11.02;4.03;;;;;;;;;;4943119;29;20212;-86
2023/10/24 05:43:19;;;;;;;8.68;4.28;;;;;;;;;;4936096;29;20210;-86
2023/10/24 05:45:51;;;;;;;7.18;3.75;;;;;;;;;;4922028;29;20230;-84
2023/10/24 05:48:19;;;;;;;9.57;4.75;;;;;;;;;;4919456;29;20728;-84
2023/10/24 05:50:49;;;;;;;8.85;4.10;;;;;;;;;;4917791;29;20274;-84
2023/10/24 05:53:19;;;;;;;13.50;5.13;;;;;;;;;;4924608;29;20199;-86
2023/10/24 05:55:58;;;;;;;7.68;4.40;;;;;;;;;;4920786;29;20219;-84
2023/10/24 05:58:26;;;;;;;6.70;4.57;;;;;;;;;;4921155;29;20270;-84
2023/10/24 06:00:57;;;;;;;14.15;5.00;;;;;;;;;;4919884;29;20200;-84
2023/10/24 06:03:26;;;;;;;8.75;4.95;;;;;;;;;;4918429;29;20242;-85
2023/10/24 06:05:58;;;;;;;17.08;4.45;;;;;;;;;;4919285;29;20260;-85
2023/10/24 06:08:32;;;;;;;8.70;3.85;;;;;;;;;;4924820;29;20231;-85
2023/10/24 06:11:03;;;;;;;7.35;4.55;;;;;;;;;;4927935;29;20195;-85
2023/10/24 06:13:31;;;;;;;9.63;4.20;;;;;;;;;;4926814;29;20188;-83
2023/10/24 06:16:12;;;;;;;5.60;4.22;;;;;;;;;;4918910;29;20307;-86
2023/10/24 06:18:42;;;;;;;9.07;4.93;;;;;;;;;;4923389;29;20196;-84
2023/10/24 06:21:12;;;;;;;11.50;4.38;;;;;;;;;;4905028;29;20679;-85
2023/10/24 06:23:43;;;;;;;6.70;4.38;;;;;;;;;;4905188;29;20272;-87
2023/10/24 06:26:14;;;;;;;10.60;4.45;;;;;;;;;;4899563;29;20232;-85
2023/10/24 06:28:50;;;;;;;8.32;4.78;;;;;;;;;;4900924;29;20240;-86
2023/10/24 06:31:20;;;;;;;13.13;4.80;;;;;;;;;;4902951;29;20243;-86
2023/10/24 06:33:50;;;;;;;7.93;4.65;;;;;;;;;;4899838;29;20204;-86
2023/10/24 06:36:21;;;;;;;10.95;4.63;;;;;;;;;;4900410;29;20237;-87
2023/10/24 06:38:52;;;;;;;7.15;4.55;;;;;;;;;;4901144;29;20215;-85
2023/10/24 06:41:28;;;;;;;16.08;4.13;;;;;;;;;;4903113;29;20201;-86
2023/10/24 06:43:58;;;;;;;8.43;4.35;;;;;;;;;;4914876;29;20376;-85
2023/10/24 06:46:28;;;;;;;8.90;4.95;;;;;;;;;;4926514;29;20208;-85
2023/10/24 06:48:55;;;;;;;4.85;4.40;;;;;;;;;;4925656;29;20243;-85
2023/10/24 06:51:26;;;;;;;7.40;4.38;;;;;;;;;;4933040;29;20212;-86
2023/10/24 06:53:59;;;;;;;7.75;5.10;;;;;;;;;;4924589;29;20271;-85
2023/10/24 06:56:27;;;;;;;7.90;4.70;;;;;;;;;;4925846;29;20232;-85
2023/10/24 06:58:58;;;;;;;12.90;5.15;;;;;;;;;;4927940;29;20647;-85
2023/10/24 07:01:32;;;;;;;6.55;4.80;;;;;;;;;;4917402;29;20207;-85
2023/10/24 07:04:00;;;;;;;8.25;4.78;;;;;;;;;;4916821;29;20222;-84
2023/10/24 07:06:34;;;;;;;7.82;4.55;;;;;;;;;;4917806;29;20207;-86
2023/10/24 07:09:06;;;;;;;11.80;5.57;;;;;;;;;;4904327;29;20271;-85
2023/10/24 07:11:35;;;;;;;13.63;5.07;;;;;;;;;;4907289;28;20319;-85
2023/10/24 07:14:05;;;;;;;14.55;4.72;;;;;;;;;;4914924;29;20331;-86
2023/10/24 07:16:33;;;;;;;13.02;5.95;;;;;;;;;;4915551;29;20693;-86
2023/10/24 07:19:00;;;;;;;11.60;5.10;;;;;;;;;;4928935;29;20232;-86
2023/10/24 07:21:29;;;;;;;14.88;5.47;;;;;;;;;;4917447;29;20713;-87
2023/10/24 07:24:00;;;;;;;9.20;5.35;;;;;;;;;;4925778;29;20224;-86
2023/10/24 07:26:29;;;;;;;7.20;5.18;;;;;;;;;;4919571;29;20251;-86
2023/10/24 07:29:00;;;;;;;10.35;5.13;;;;;;;;;;4916315;29;20239;-87
2023/10/24 07:31:30;;;;;;;14.27;5.60;;;;;;;;;;4917412;29;20315;-87
2023/10/24 07:34:00;;;;;;;11.73;5.85;;;;;;;;;;4916675;29;20248;-87
2023/10/24 07:36:34;;;;;;;8.60;5.05;;;;;;;;;;4916029;29;20252;-86
2023/10/24 07:39:05;;;;;;;10.95;5.47;;;;;;;;;;4915936;29;20730;-85
2023/10/24 07:41:33;;;;;;;11.15;5.60;;;;;;;;;;4916047;29;20254;-85
2023/10/24 07:44:01;;;;;;;15.23;5.10;;;;;;;;;;4915060;29;20224;-86
2023/10/24 07:46:36;;;;;;;16.35;4.80;;;;;;;;;;4919160;29;20219;-87
2023/10/24 07:49:07;;;;;;;16.92;4.68;;;;;;;;;;4924999;29;20224;-87
2023/10/24 07:51:37;;;;;;;14.00;5.38;;;;;;;;;;4934864;29;20229;-86
2023/10/24 07:54:10;;;;;;;8.27;4.20;;;;;;;;;;4944249;28;20227;-86
2023/10/24 07:56:40;;;;;;;13.45;5.30;;;;;;;;;;4935687;29;20243;-85
2023/10/24 07:59:11;;;;;;;8.13;5.00;;;;;;;;;;4935551;29;20224;-85
2023/10/24 08:01:38;;;;;;;10.63;5.55;;;;;;;;;;4935846;29;20615;-86
2023/10/24 08:04:11;;;;;;;8.57;4.80;;;;;;;;;;4930665;29;20294;-86
2023/10/24 08:06:41;;;;;;;13.52;4.50;;;;;;;;;;4935490;29;20606;-86
2023/10/24 08:09:10;;;;;;;9.07;4.78;;;;;;;;;;4934072;29;20227;-86
2023/10/24 08:11:45;;;;;;;7.68;4.60;;;;;;;;;;4935400;29;20239;-86
2023/10/24 08:14:13;;;;;;;7.97;4.45;;;;;;;;;;4936178;29;20302;-87
2023/10/24 08:16:41;;;;;;;9.80;4.68;;;;;;;;;;4936162;29;20694;-86
2023/10/24 08:19:11;;;;;;;9.70;4.63;;;;;;;;;;4935315;29;20240;-85
2023/10/24 08:21:44;;;;;;;19.77;5.35;;;;;;;;;;4930356;29;20235;-87
2023/10/24 08:24:18;;;;;;;9.10;4.80;;;;;;;;;;4915583;29;20242;-86
2023/10/24 08:26:46;;;;;;;7.05;4.97;;;;;;;;;;4915157;29;20639;-85
2023/10/24 08:29:15;;;;;;;9.60;4.60;;;;;;;;;;4916605;29;20308;-87
2023/10/24 08:31:45;;;;;;;11.07;4.82;;;;;;;;;;4917260;29;20226;-86
2023/10/24 08:34:13;;;;;;;14.75;4.88;;;;;;;;;;4916533;29;20243;-86
2023/10/24 08:36:40;;;;;;;6.65;4.03;;;;;;;;;;4919110;29;20239;-87
2023/10/24 08:39:07;;;;;;;12.25;5.18;;;;;;;;;;4922120;29;20356;-85
2023/10/24 08:41:37;;;;;;;14.40;5.00;;;;;;;;;;4926656;29;20228;-85
2023/10/24 08:44:07;;;;;;;9.25;4.35;;;;;;;;;;4925145;29;20291;-86
2023/10/24 08:46:36;;;;;;;9.82;4.47;;;;;;;;;;4921558;29;20716;-86
2023/10/24 08:49:05;;;;;;;14.55;5.10;;;;;;;;;;4923624;29;20232;-87
2023/10/24 08:51:34;;;;;;;13.60;4.43;;;;;;;;;;4922574;29;20232;-85
2023/10/24 08:54:05;;;;;;;9.48;4.38;;;;;;;;;;4920595;29;20319;-86
2023/10/24 08:56:35;;;;;;;8.50;5.05;;;;;;;;;;4920843;29;20244;-86
2023/10/24 08:59:06;;;;;;;15.00;4.75;;;;;;;;;;4917143;29;20439;-85
2023/10/24 09:01:44;;;;;;;6.50;4.38;;;;;;;;;;4920915;29;20219;-85
2023/10/24 09:04:13;;;;;;;9.65;4.30;;;;;;;;;;4917020;29;20267;-85
2023/10/24 09:06:41;;;;;;;5.75;3.63;;;;;;;;;;4915320;29;20784;-85
2023/10/24 09:09:12;;;;;;;9.18;4.05;;;;;;;;;;4915346;29;20247;-86
2023/10/24 09:11:55;;;;;;;9.35;3.60;;;;;;;;;;4914898;29;20299;-86
2023/10/24 09:14:32;;;;;;;6.22;3.35;;;;;;;;;;4916251;29;20216;-86
2023/10/24 09:17:05;;;;;;;10.05;3.63;;;;;;;;;;4915305;29;20239;-86
2023/10/24 09:19:33;;;;;;;8.70;3.70;;;;;;;;;;4914828;29;20307;-86
2023/10/24 09:22:03;;;;;;;9.43;3.80;;;;;;;;;;4914367;29;20327;-86
2023/10/24 09:24:36;;;;;;;4.88;2.97;;;;;;;;;;4914952;29;20279;-86
2023/10/24 09:27:06;;;;;;;4.63;2.95;;;;;;;;;;4913609;29;20252;-86
2023/10/24 09:29:36;;;;;;;5.43;2.78;;;;;;;;;;4916924;29;20635;-85
2023/10/24 09:32:05;;;;;;;10.45;3.08;;;;;;;;;;4914589;29;20303;-86
2023/10/24 09:34:36;;;;;;;4.43;3.30;;;;;;;;;;4914387;29;20239;-87
2023/10/24 09:37:10;;;;;;;3.55;2.47;;;;;;;;;;4902554;29;20243;-86
2023/10/24 09:39:59;;;;;;;4.20;3.05;;;;;;;;;;4917379;29;20713;-86
2023/10/24 09:42:31;;;;;;;6.85;3.58;;;;;;;;;;4917201;29;20220;-87
2023/10/24 09:45:07;;;;;;;6.15;3.78;;;;;;;;;;4917739;29;20235;-86
2023/10/24 09:47:39;;;;;;;9.15;3.70;;;;;;;;;;4910417;29;20533;-86
2023/10/24 09:50:11;;;;;;;10.02;3.58;;;;;;;;;;4917746;29;20310;-86
2023/10/24 09:52:42;;;;;;;7.55;3.88;;;;;;;;;;4914880;29;20311;-86
2023/10/24 09:55:15;;;;;;;9.20;4.20;;;;;;;;;;4917374;29;20580;-86
2023/10/24 09:57:47;;;;;;;9.05;4.18;;;;;;;;;;4917363;29;20240;-86
2023/10/24 10:00:19;;;;;;;14.43;3.95;;;;;;;;;;4916144;29;20638;-85
2023/10/24 10:02:54;;;;;;;6.10;4.57;;;;;;;;;;4916623;29;20232;-86
2023/10/24 10:05:25;;;;;;;6.82;4.13;;;;;;;;;;4917120;29;20231;-85
2023/10/24 10:07:56;;;;;;;11.50;4.65;;;;;;;;;;4908249;29;20285;-87
2023/10/24 10:10:25;;;;;;;8.27;4.07;;;;;;;;;;4915953;29;20232;-86
2023/10/24 10:12:59;;;;;;;6.20;3.50;;;;;;;;;;4913927;29;20239;-86
2023/10/24 10:15:40;;;;;;;8.52;4.28;;;;;;;;;;4920623;29;20228;-87
2023/10/24 10:18:14;;;;;;;7.38;3.72;;;;;;;;;;4924494;29;20704;-86
2023/10/24 10:20:55;;;;;;;14.65;3.78;;;;;;;;;;4932359;29;20223;-86
2023/10/24 10:23:32;;;;;;;13.02;4.35;;;;;;;;;;4923404;29;20321;-85
2023/10/24 10:26:06;;;;;;;11.77;4.05;;;;;;;;;;4928254;29;20220;-85
2023/10/24 10:28:51;;;;;;;17.55;4.63;;;;;;;;;;4924380;29;20266;-85
2023/10/24 10:31:35;;;;;;;7.25;4.50;;;;;;;;;;4925605;29;20733;-87
2023/10/24 10:34:03;;;;;;;9.00;4.32;;;;;;;;;;4927912;29;20240;-85
2023/10/24 10:36:31;;;;;;;4.57;3.70;;;;;;;;;;4924227;29;20268;-84
2023/10/24 10:39:08;;;;;;;10.93;3.63;;;;;;;;;;4924247;29;20610;-87
2023/10/24 10:41:39;;;;;;;10.88;4.15;;;;;;;;;;4919734;29;20235;-85
2023/10/24 10:44:25;;;;;;;4.57;4.18;;;;;;;;;;4932839;29;20235;-86
2023/10/24 10:47:04;;;;;;;5.20;3.90;;;;;;;;;;4929091;29;20255;-84
2023/10/24 10:49:40;;;;;;;4.95;3.90;;;;;;;;;;4930341;29;20235;-85
2023/10/24 10:52:10;;;;;;;17.05;3.83;;;;;;;;;;4932422;29;20322;-86
2023/10/24 10:54:48;;;;;;;11.07;3.72;;;;;;;;;;4930305;29;20238;-87
2023/10/24 10:57:16;;;;;;;11.50;3.40;;;;;;;;;;4912201;29;20236;-86
2023/10/24 10:59:51;;;;;;;5.32;3.33;;;;;;;;;;4932390;29;20247;-88
2023/10/24 11:02:37;;;;;;;8.93;3.25;;;;;;;;;;4937767;29;20255;-89
2023/10/24 11:05:27;;;;;;;7.00;3.33;;;;;;;;;;4917312;29;20246;-87
2023/10/24 11:08:06;;;;;;;14.65;3.95;;;;;;;;;;4917362;29;20655;-86
2023/10/24 11:10:52;;;;;;;6.35;3.38;;;;;;;;;;4916473;29;20314;-86
2023/10/24 11:13:32;;;;;;;6.13;2.85;;;;;;;;;;4915794;29;20231;-85
2023/10/24 11:16:03;;;;;;;11.13;3.55;;;;;;;;;;4915690;29;20314;-86
2023/10/24 11:18:33;;;;;;;14.60;3.55;;;;;;;;;;4916041;29;20263;-87
2023/10/24 11:21:02;;;;;;;11.98;3.40;;;;;;;;;;4917258;29;20224;-86
2023/10/24 11:23:30;;;;;;;11.27;3.38;;;;;;;;;;4915952;29;20228;-86
2023/10/24 11:26:02;;;;;;;7.38;3.72;;;;;;;;;;4916070;29;20238;-86
2023/10/24 11:28:29;;;;;;;9.32;2.60;;;;;;;;;;4915537;29;20688;-86
2023/10/24 11:31:01;;;;;;;11.95;2.92;;;;;;;;;;4915369;29;20793;-85
2023/10/24 11:33:29;;;;;;;6.93;2.30;;;;;;;;;;4914308;29;20228;-86
2023/10/24 11:35:59;;;;;;;5.40;2.70;;;;;;;;;;4916140;29;20231;-87
2023/10/24 11:38:30;;;;;;;7.43;2.50;;;;;;;;;;4913436;29;20264;-88
2023/10/24 11:41:01;;;;;;;6.03;2.35;;;;;;;;;;4915277;29;20224;-86
2023/10/24 11:43:32;;;;;;;7.60;2.63;;;;;;;;;;4910313;29;20659;-86
2023/10/24 11:46:02;;;;;;;12.90;2.83;;;;;;;;;;4914971;29;20238;-85
2023/10/24 11:48:33;;;;;;;9.98;3.30;;;;;;;;;;4924311;29;20460;-86
2023/10/24 11:51:06;;;;;;;5.72;2.78;;;;;;;;;;4920414;29;20228;-87
2023/10/24 11:53:34;;;;;;;4.60;2.40;;;;;;;;;;4917475;29;20239;-87
2023/10/24 11:56:05;;;;;;;10.20;2.50;;;;;;;;;;4916580;29;20224;-87
2023/10/24 11:58:36;;;;;;;6.40;3.30;;;;;;;;;;4915838;29;20383;-86
2023/10/24 12:01:05;;;;;;;3.92;2.50;;;;;;;;;;4915655;29;20347;-86
2023/10/24 12:03:47;;;;;;;4.40;2.20;;;;;;;;;;4915209;29;20231;-87
2023/10/24 12:06:19;;;;;;;10.73;2.30;;;;;;;;;;4915318;29;20240;-87
2023/10/24 12:08:47;;;;;;;5.88;2.47;;;;;;;;;;4916642;29;20236;-87
2023/10/24 12:11:23;;;;;;;8.63;2.25;;;;;;;;;;4916741;29;20224;-85
2023/10/24 12:13:53;;;;;;;5.88;2.38;;;;;;;;;;4916160;29;20708;-87
2023/10/24 12:16:24;;;;;;;2.78;1.95;;;;;;;;;;4918822;29;20232;-86
2023/10/24 12:18:53;;;;;;;3.53;2.10;;;;;;;;;;4922072;29;20268;-85
2023/10/24 12:21:23;;;;;;;3.40;2.53;;;;;;;;;;4924003;29;20227;-86
2023/10/24 12:23:53;;;;;;;4.68;1.85;;;;;;;;;;4926375;29;20227;-87
2023/10/24 12:26:21;;;;;;;4.50;1.92;;;;;;;;;;4927236;29;20227;-86
2023/10/24 12:28:53;;;;;;;1.95;1.70;;;;;;;;;;4931483;29;20235;-86
2023/10/24 12:31:22;;;;;;;3.67;1.65;;;;;;;;;;4924097;29;20236;-86
2023/10/24 12:33:51;;;;;;;7.22;2.90;;;;;;;;;;4930571;29;20231;-86
2023/10/24 12:36:20;;;;;;;7.28;2.22;;;;;;;;;;4927046;29;20717;-85
2023/10/24 12:38:59;;;;;;;7.63;1.80;;;;;;;;;;4927177;29;20238;-86
2023/10/24 12:41:38;;;;;;;6.95;2.15;;;;;;;;;;4938330;29;20257;-87
2023/10/24 12:44:06;;;;;;;3.92;1.95;;;;;;;;;;4916256;29;20272;-85
2023/10/24 12:46:34;;;;;;;6.32;2.45;;;;;;;;;;4924928;29;20238;-84
2023/10/24 12:49:08;;;;;;;2.35;1.80;;;;;;;;;;4922056;29;20232;-87
2023/10/24 12:51:41;;;;;;;6.65;1.77;;;;;;;;;;4906640;29;20228;-86
2023/10/24 12:54:12;;;;;;;4.10;1.85;;;;;;;;;;4928131;29;20250;-87
2023/10/24 12:56:43;;;;;;;11.18;2.10;;;;;;;;;;4914818;29;20238;-86
2023/10/24 12:59:15;;;;;;;6.65;1.88;;;;;;;;;;4914526;29;20615;-87
2023/10/24 13:01:44;;;;;;;3.72;1.90;;;;;;;;;;4914048;29;20224;-86
2023/10/24 13:04:15;;;;;;;5.47;1.80;;;;;;;;;;4915444;29;20224;-87
2023/10/24 13:06:46;;;;;;;5.35;2.05;;;;;;;;;;4913086;29;20256;-86
2023/10/24 13:09:23;;;;;;;8.15;2.05;;;;;;;;;;4929846;29;20260;-86
2023/10/24 13:12:08;;;;;;;4.70;1.90;;;;;;;;;;4912203;29;20795;-85
2023/10/24 13:14:40;;;;;;;6.07;1.48;;;;;;;;;;4918734;29;20228;-86
2023/10/24 13:17:13;;;;;;;6.53;2.05;;;;;;;;;;4915214;29;20666;-87
2023/10/24 13:19:51;;;;;;;6.75;1.92;;;;;;;;;;4919489;29;20691;-86
2023/10/24 13:22:22;;;;;;;1.88;1.67;;;;;;;;;;4919827;29;20232;-87
2023/10/24 13:24:51;;;;;;;8.43;1.98;;;;;;;;;;4918434;29;20258;-88
2023/10/24 13:27:19;;;;;;;3.17;1.90;;;;;;;;;;4918806;29;20800;-86
2023/10/24 13:29:59;;;;;;;3.47;1.77;;;;;;;;;;4919260;29;20228;-87
2023/10/24 13:32:30;;;;;;;3.55;2.28;;;;;;;;;;4917721;29;20231;-86
2023/10/24 13:34:57;;;;;;;6.95;1.98;;;;;;;;;;4917867;29;20319;-87
2023/10/24 13:37:32;;;;;;;6.75;1.83;;;;;;;;;;4911940;29;20248;-86
2023/10/24 13:40:03;;;;;;;5.78;1.80;;;;;;;;;;4930840;29;20369;-87
2023/10/24 13:42:36;;;;;;;3.20;1.55;;;;;;;;;;4937506;29;20265;-86
2023/10/24 13:45:08;;;;;;;3.17;1.38;;;;;;;;;;4939813;29;20247;-87
2023/10/24 13:47:37;;;;;;;8.55;1.83;;;;;;;;;;4937185;29;20211;-85
2023/10/24 13:50:07;;;;;;;1.50;1.35;;;;;;;;;;4937373;29;20356;-86
2023/10/24 13:52:37;;;;;;;2.08;1.70;;;;;;;;;;4937854;29;20275;-86
2023/10/24 13:55:08;;;;;;;5.10;1.48;;;;;;;;;;4937008;29;20206;-86
2023/10/24 13:57:43;;;;;;;1.85;1.55;;;;;;;;;;4937522;29;20235;-85
2023/10/24 14:00:18;;;;;;;4.93;1.58;;;;;;;;;;4938272;29;20204;-86
2023/10/24 14:02:46;;;;;;;6.18;1.85;;;;;;;;;;4937190;29;20396;-86
2023/10/24 14:05:16;;;;;;;4.53;2.00;;;;;;;;;;4937786;29;20673;-84
2023/10/24 14:07:45;;;;;;;5.72;2.05;;;;;;;;;;4937066;29;20590;-85
2023/10/24 14:10:16;;;;;;;5.70;1.63;;;;;;;;;;4936934;29;20215;-85
2023/10/24 14:12:49;;;;;;;3.75;1.80;;;;;;;;;;4940154;29;20204;-84
2023/10/24 14:15:18;;;;;;;2.45;1.42;;;;;;;;;;4945199;29;20202;-85
2023/10/24 14:17:48;;;;;;;4.05;1.50;;;;;;;;;;4955512;28;20231;-84
2023/10/24 14:20:18;;;;;;;4.50;1.55;;;;;;;;;;4958951;28;20227;-85
2023/10/24 14:22:49;;;;;;;2.40;1.50;;;;;;;;;;4942390;29;20208;-85
2023/10/24 14:25:18;;;;;;;10.15;1.95;;;;;;;;;;4938752;29;20290;-86
2023/10/24 14:27:50;;;;;;;2.30;1.45;;;;;;;;;;4935442;29;20218;-84
2023/10/24 14:30:17;;;;;;;5.15;1.70;;;;;;;;;;4936737;29;20575;-84
2023/10/24 14:32:45;;;;;;;4.10;1.50;;;;;;;;;;4940097;29;20214;-84
2023/10/24 14:35:16;;;;;;;9.15;1.75;;;;;;;;;;4951162;29;20255;-85
2023/10/24 14:37:44;;;;;;;7.88;2.05;;;;;;;;;;4943223;29;20243;-85
2023/10/24 14:40:12;;;;;;;6.97;1.90;;;;;;;;;;4937811;29;20211;-86
2023/10/24 14:42:44;;;;;;;3.60;1.48;;;;;;;;;;4935893;29;20235;-84
2023/10/24 14:45:14;;;;;;;4.13;1.75;;;;;;;;;;4936001;29;20203;-85
2023/10/24 14:47:44;;;;;;;3.30;1.52;;;;;;;;;;4935849;29;20206;-85
2023/10/24 14:50:16;;;;;;;3.40;1.67;;;;;;;;;;4935136;29;20283;-86
2023/10/24 14:52:44;;;;;;;5.32;1.77;;;;;;;;;;4938016;29;20720;-85
2023/10/24 14:55:13;;;;;;;4.10;1.70;;;;;;;;;;4938567;29;20591;-85
2023/10/24 14:57:43;;;;;;;6.43;1.98;;;;;;;;;;4937261;29;20243;-84
2023/10/24 15:00:12;;;;;;;4.05;1.95;;;;;;;;;;4936068;29;20233;-84
2023/10/24 15:02:43;;;;;;;4.65;1.80;;;;;;;;;;4936457;29;20231;-85
2023/10/24 15:05:11;;;;;;;8.95;2.53;;;;;;;;;;4936490;29;20689;-84
2023/10/24 15:07:41;;;;;;;2.67;2.47;;;;;;;;;;4937524;29;20218;-84